Opelousas, Louisiana
Current Conditions -  °F | °C
As of 6:35 PM on Friday 24 Oct 2014 (Local Time) from KOPL Reporting Station
Overcast Overcast  
Wind Chill: 63°   Ceiling: 200
Heat Index: 63°   Visibility: 10mi
Dew Point: 52°   Wind: 0mph
Humidity: 67%   Direction: NA
Pressure: 30.09"   Gusts: NA
Location:  30.53°N, 92.08°W
Report Text: KOPL 242335Z AUTO 00000KT 10SM OVC002 17/11 A3009 RMK AO2 T01740112
Loading
Personal Weather Stations






























Interactive Weather Map
Tropical Storm Tracking
New forecast layout! Learn more

10-Day Weather Forecast

Advertisements
Track Severe Weather on mobile